createdAt,value
2019-01-12T00:01:35.816Z,99.80
2019-01-12T00:04:05.705Z,99.80
2019-01-12T00:14:05.215Z,99.70
2019-01-12T00:19:04.421Z,99.80
2019-01-12T00:24:03.652Z,99.80
2019-01-12T00:29:02.832Z,99.80
2019-01-12T00:31:32.652Z,99.90
2019-01-12T00:34:02.457Z,99.80
2019-01-12T00:36:32.284Z,99.70
2019-01-12T00:41:31.381Z,99.70
2019-01-12T00:44:01.447Z,99.60
2019-01-12T00:46:31.342Z,99.70
2019-01-12T00:49:01.429Z,99.80
2019-01-12T00:54:00.644Z,99.80
2019-01-12T00:58:59.728Z,99.90
2019-01-12T01:01:29.548Z,99.90
2019-01-12T01:03:59.360Z,99.70
2019-01-12T01:06:29.176Z,99.70
2019-01-12T01:08:59.068Z,99.70
2019-01-12T01:11:28.953Z,99.50
2019-01-12T01:13:58.833Z,99.30
2019-01-12T01:18:58.175Z,99.10
2019-01-12T01:23:57.628Z,99.10
2019-01-12T01:28:56.732Z,99.20
2019-01-12T01:31:26.665Z,99.30
2019-01-12T01:33:56.478Z,99.10
2019-01-12T01:36:26.441Z,99.10
2019-01-12T01:43:54.880Z,98.70
2019-01-12T01:48:53.921Z,98.70
2019-01-12T01:51:23.736Z,98.70
2019-01-12T01:53:53.553Z,98.70
2019-01-12T01:56:23.461Z,98.80
2019-01-12T01:58:53.273Z,98.80
2019-01-12T02:01:23.092Z,98.60
2019-01-12T02:03:53.400Z,98.60
2019-01-12T02:06:26.096Z,98.60
2019-01-12T02:11:25.153Z,98.50
2019-01-12T02:13:54.974Z,98.40
2019-01-12T02:16:24.785Z,98.20
2019-01-12T02:23:53.069Z,98.20
2019-01-12T02:26:22.890Z,98.30
2019-01-12T02:28:52.704Z,98.20
2019-01-12T02:31:24.354Z,98.20
2019-01-12T02:36:23.404Z,98.20
2019-01-12T02:38:53.205Z,97.90
2019-01-12T02:41:23.079Z,98.00
2019-01-12T02:43:52.901Z,98.10
2019-01-12T02:46:22.705Z,98.10
2019-01-12T02:51:22.065Z,98.40
2019-01-12T02:53:51.906Z,98.50
2019-01-12T02:56:21.961Z,98.60
2019-01-12T03:03:50.389Z,98.80
2019-01-12T03:08:49.593Z,98.80
2019-01-12T03:11:19.392Z,98.80
2019-01-12T03:18:47.790Z,98.90
2019-01-12T03:21:17.672Z,98.90
2019-01-12T03:23:47.504Z,98.90
2019-01-12T03:26:17.381Z,99.00
2019-01-12T03:28:47.212Z,98.90
2019-01-12T03:33:46.516Z,99.00
2019-01-12T03:41:14.994Z,99.00
2019-01-12T03:43:44.860Z,99.00
2019-01-12T03:46:14.837Z,98.90
2019-01-12T03:48:44.732Z,99.00
2019-01-12T03:51:14.614Z,99.00
2019-01-12T03:53:44.439Z,98.90
2019-01-12T03:56:14.253Z,99.00
2019-01-12T04:01:13.304Z,98.80
2019-01-12T04:03:43.200Z,98.60
2019-01-12T04:06:13.080Z,98.60
2019-01-12T04:08:42.913Z,98.60
2019-01-12T04:16:11.516Z,98.50
2019-01-12T04:18:41.788Z,98.50
2019-01-12T04:23:40.844Z,98.10
2019-01-12T04:26:10.769Z,98.20
2019-01-12T04:28:40.584Z,98.30
2019-01-12T04:31:10.497Z,98.20
2019-01-12T04:33:40.305Z,98.20
2019-01-12T04:36:10.216Z,98.30
2019-01-12T04:41:09.679Z,98.30
2019-01-12T04:43:39.573Z,98.30
2019-01-12T04:48:38.776Z,98.20
2019-01-12T04:53:37.985Z,97.80
2019-01-12T04:56:07.877Z,97.90
2019-01-12T04:58:37.700Z,97.90
2019-01-12T05:01:07.660Z,97.90
2019-01-12T05:03:37.485Z,97.90
2019-01-12T05:06:07.296Z,97.90
2019-01-12T05:08:37.337Z,97.80
2019-01-12T05:16:06.021Z,97.80
2019-01-12T05:18:35.862Z,97.60
2019-01-12T05:21:05.787Z,97.40
2019-01-12T05:23:35.867Z,97.60
2019-01-12T05:26:05.950Z,97.70
2019-01-12T05:28:35.770Z,97.80
2019-01-12T05:31:05.684Z,97.80
2019-01-12T05:33:35.553Z,97.70
2019-01-12T05:36:05.460Z,97.70
2019-01-12T05:38:35.257Z,97.80
2019-01-12T05:46:03.808Z,98.00
2019-01-12T05:48:33.605Z,98.10
2019-01-12T05:51:03.495Z,98.10
2019-01-12T05:53:33.291Z,98.20
2019-01-12T05:58:32.588Z,98.30
2019-01-12T06:01:02.587Z,98.30
2019-01-12T06:03:32.404Z,98.20
2019-01-12T06:06:02.272Z,98.20
2019-01-12T06:11:01.564Z,97.90
2019-01-12T06:13:31.380Z,97.70
2019-01-12T06:18:31.021Z,97.90
2019-01-12T06:21:01.302Z,97.90
2019-01-12T06:23:31.557Z,97.70
2019-01-12T06:26:04.027Z,97.70
2019-01-12T06:28:33.500Z,97.70
2019-01-12T06:31:03.611Z,97.60
2019-01-12T06:33:33.562Z,97.50
2019-01-12T06:36:03.380Z,97.30
2019-01-12T06:43:32.681Z,97.40
2019-01-12T06:46:02.565Z,97.30
2019-01-12T06:48:32.384Z,97.30
2019-01-12T06:51:02.850Z,97.30
2019-01-12T06:53:32.941Z,97.50
2019-01-12T06:56:02.853Z,97.40
2019-01-12T07:03:31.407Z,96.60
2019-01-12T07:08:30.590Z,96.70
2019-01-12T07:11:00.503Z,96.40
2019-01-12T07:15:59.642Z,96.10
2019-01-12T07:18:31.596Z,96.00
2019-01-12T07:21:01.475Z,95.80
2019-01-12T07:26:00.544Z,95.70
2019-01-12T07:28:30.352Z,95.50
2019-01-12T07:31:00.166Z,95.50
2019-01-12T07:33:29.989Z,95.40
2019-01-12T07:38:29.051Z,95.20
2019-01-12T07:40:58.921Z,95.30
2019-01-12T07:48:28.126Z,95.30
2019-01-12T07:50:58.281Z,95.40
2019-01-12T07:53:28.507Z,95.50
2019-01-12T07:55:58.632Z,95.40
2019-01-12T07:58:28.985Z,95.40
2019-01-12T08:10:56.911Z,95.20
2019-01-12T08:13:27.113Z,95.10
2019-01-12T08:15:57.224Z,95.20
2019-01-12T08:18:27.461Z,95.10
2019-01-12T08:20:59.325Z,95.00
2019-01-12T08:23:30.435Z,95.00
2019-01-12T08:26:00.893Z,95.20
2019-01-12T08:28:31.215Z,95.00
2019-01-12T08:33:31.251Z,94.70
2019-01-12T08:36:01.515Z,94.60
2019-01-12T08:41:01.269Z,94.40
2019-01-12T08:46:01.220Z,93.90
2019-01-12T08:48:31.711Z,93.90
2019-01-12T08:51:02.042Z,93.90
2019-01-12T08:53:32.441Z,93.90
2019-01-12T08:56:02.635Z,93.80
2019-01-12T08:58:33.006Z,93.70
2019-01-12T09:01:03.474Z,93.70
2019-01-12T09:03:33.510Z,93.60
2019-01-12T09:06:03.405Z,93.50
2019-01-12T09:11:02.628Z,93.10
2019-01-12T09:13:32.436Z,93.00
2019-01-12T09:18:31.572Z,92.60
2019-01-12T09:21:01.401Z,92.60
2019-01-12T09:26:00.458Z,92.80
2019-01-12T09:28:30.273Z,93.10
2019-01-12T09:31:00.205Z,92.80
2019-01-12T09:33:30.098Z,93.00
2019-01-12T09:38:29.216Z,93.00
2019-01-12T09:40:59.171Z,92.80
2019-01-12T09:48:27.584Z,92.40
2019-01-12T09:53:26.777Z,92.30
2019-01-12T09:55:56.856Z,92.00
2019-01-12T09:58:26.675Z,91.70
2019-01-12T10:00:56.493Z,91.50
2019-01-12T10:03:26.301Z,91.40
2019-01-12T10:08:25.336Z,91.20
2019-01-12T10:10:55.156Z,91.40
2019-01-12T10:13:24.964Z,91.60
2019-01-12T10:15:54.777Z,91.40
2019-01-12T10:20:54.060Z,91.00
2019-01-12T10:23:23.872Z,91.00
2019-01-12T10:25:53.765Z,90.90
2019-01-12T10:28:23.575Z,90.70
2019-01-12T10:30:53.662Z,90.70
2019-01-12T10:33:23.465Z,90.70
2019-01-12T10:35:53.373Z,90.70
2019-01-12T10:38:23.344Z,90.20
2019-01-12T10:40:53.315Z,90.30
2019-01-12T10:43:23.134Z,90.30
2019-01-12T10:45:53.021Z,90.20
2019-01-12T10:48:22.913Z,90.30
2019-01-12T10:50:52.793Z,90.10
2019-01-12T10:53:22.609Z,90.10
2019-01-12T10:55:52.684Z,89.60
2019-01-12T10:58:22.540Z,90.10
2019-01-12T11:00:52.362Z,89.30
2019-01-12T11:03:22.271Z,89.30
2019-01-12T11:08:21.323Z,89.90
2019-01-12T11:10:51.328Z,89.70
2019-01-12T11:13:21.155Z,89.80
2019-01-12T11:20:49.845Z,90.20
2019-01-12T11:25:49.064Z,90.00
2019-01-12T11:28:19.796Z,90.10
2019-01-12T11:30:49.608Z,90.20
2019-01-12T11:33:19.445Z,90.20
2019-01-12T11:35:49.529Z,90.30
2019-01-12T11:38:19.532Z,90.20
2019-01-12T11:40:49.396Z,90.30
2019-01-12T11:43:19.215Z,90.20
2019-01-12T11:45:50.637Z,90.30
2019-01-12T11:48:20.601Z,90.30
2019-01-12T11:50:50.411Z,90.30
2019-01-12T11:55:49.619Z,90.60
2019-01-12T11:58:19.437Z,90.30
2019-01-12T12:00:49.317Z,90.30
2019-01-12T12:03:19.209Z,90.20
2019-01-12T12:05:49.285Z,90.50
2019-01-12T12:08:19.356Z,90.30
2019-01-12T12:10:49.263Z,90.50
2019-01-12T12:13:19.072Z,90.70
2019-01-12T12:15:48.907Z,90.50
2019-01-12T12:18:18.719Z,90.40
2019-01-12T12:20:48.528Z,90.60
2019-01-12T12:23:18.432Z,90.50
2019-01-12T12:25:48.329Z,90.60
2019-01-12T12:28:18.404Z,90.60
2019-01-12T12:30:48.250Z,90.60
2019-01-12T12:33:18.156Z,90.70
2019-01-12T12:38:17.304Z,90.70
2019-01-12T12:45:45.684Z,90.40
2019-01-12T12:48:15.566Z,90.20
2019-01-12T12:50:45.376Z,90.30
2019-01-12T12:53:15.329Z,90.40
2019-01-12T12:55:45.240Z,90.40
2019-01-12T13:00:44.467Z,90.90
2019-01-12T13:03:14.299Z,91.00
2019-01-12T13:08:13.432Z,91.50
2019-01-12T13:10:43.604Z,91.70
2019-01-12T13:13:13.569Z,92.10
2019-01-12T13:15:43.520Z,92.30
2019-01-12T13:18:13.504Z,92.50
2019-01-12T13:20:43.404Z,92.70
2019-01-12T13:25:42.524Z,92.80
2019-01-12T13:28:12.360Z,92.90
2019-01-12T13:30:42.272Z,92.90
2019-01-12T13:33:12.072Z,93.00
2019-01-12T13:38:11.358Z,93.50
2019-01-12T13:43:10.486Z,93.30
2019-01-12T13:50:39.120Z,93.40
2019-01-12T13:53:08.924Z,93.50
2019-01-12T13:55:39.011Z,93.50
2019-01-12T14:03:09.340Z,93.60
2019-01-12T14:08:08.626Z,93.60
2019-01-12T14:10:38.520Z,93.60
2019-01-12T14:18:08.244Z,94.10
2019-01-12T14:20:39.661Z,94.50
2019-01-12T14:23:10.332Z,94.60
2019-01-12T14:25:40.341Z,94.80
2019-01-12T14:28:10.173Z,95.00
2019-01-12T14:30:39.992Z,95.30
2019-01-12T14:33:09.873Z,95.60
2019-01-12T14:35:39.936Z,95.60
2019-01-12T14:40:39.149Z,95.70
2019-01-12T14:43:09.027Z,95.80
2019-01-12T14:45:38.824Z,96.00
2019-01-12T14:48:08.781Z,96.10
2019-01-12T14:50:38.596Z,96.40
2019-01-12T14:53:08.526Z,96.60
2019-01-12T14:55:38.336Z,96.60
2019-01-12T14:58:08.327Z,96.80
2019-01-12T15:00:38.150Z,96.70
2019-01-12T15:03:07.958Z,96.80
2019-01-12T15:08:07.067Z,97.20
2019-01-12T15:15:35.584Z,97.50
2019-01-12T15:18:05.716Z,97.50
2019-01-12T15:20:35.600Z,97.70
2019-01-12T15:23:05.596Z,97.80
2019-01-12T15:25:35.411Z,97.70
2019-01-12T15:28:09.493Z,98.00
2019-01-12T15:33:08.200Z,97.90
2019-01-12T15:40:37.394Z,98.20
2019-01-12T15:43:07.385Z,98.30
2019-01-12T15:45:37.328Z,98.30
2019-01-12T15:48:07.295Z,98.40
2019-01-12T15:50:37.118Z,98.60
2019-01-12T15:55:36.469Z,98.80
2019-01-12T15:58:06.360Z,98.90
2019-01-12T16:00:36.246Z,98.90
2019-01-12T16:03:06.156Z,98.90
2019-01-12T16:08:05.521Z,99.00
2019-01-12T16:10:35.396Z,98.90
2019-01-12T16:13:05.528Z,98.90
2019-01-12T16:15:35.625Z,99.00
2019-01-12T16:20:39.461Z,99.20
2019-01-12T16:23:10.600Z,99.30
2019-01-12T16:25:40.413Z,99.20
2019-01-12T16:28:10.379Z,99.10
2019-01-12T16:30:40.248Z,99.10
2019-01-12T16:33:10.371Z,99.10
2019-01-12T16:38:09.540Z,99.00
2019-01-12T16:40:39.609Z,99.10
2019-01-12T16:43:09.741Z,99.20
2019-01-12T16:45:39.627Z,99.10
2019-01-12T16:48:09.540Z,99.20
2019-01-12T16:50:39.365Z,99.10
2019-01-12T16:53:09.509Z,99.10
2019-01-12T16:58:08.744Z,99.20
2019-01-12T17:00:38.568Z,99.20
2019-01-12T17:03:08.384Z,99.20
2019-01-12T17:05:38.269Z,99.00
2019-01-12T17:10:37.705Z,99.10
2019-01-12T17:13:07.584Z,99.00
2019-01-12T17:15:37.472Z,99.00
2019-01-12T17:18:07.456Z,98.80
2019-01-12T17:23:06.769Z,98.70
2019-01-12T17:25:36.659Z,98.70
2019-01-12T17:28:06.661Z,99.00
2019-01-12T17:30:36.473Z,98.60
2019-01-12T17:33:06.461Z,98.70
2019-01-12T17:38:06.713Z,98.70
2019-01-12T17:40:36.728Z,98.50
2019-01-12T17:45:35.976Z,98.40
2019-01-12T17:48:05.986Z,98.20
2019-01-12T17:50:35.907Z,98.10
2019-01-12T17:53:06.064Z,98.00
2019-01-12T17:55:36.007Z,98.00
2019-01-12T17:58:06.028Z,98.40
2019-01-12T18:00:47.930Z,98.00
2019-01-12T18:05:47.238Z,97.80
2019-01-12T18:08:17.109Z,97.80
2019-01-12T18:10:47.096Z,97.80
2019-01-12T18:13:17.144Z,97.90
2019-01-12T18:15:46.960Z,97.80
2019-01-12T18:18:17.096Z,97.90
2019-01-12T18:20:47.010Z,97.90
2019-01-12T18:23:16.949Z,97.90
2019-01-12T18:25:46.841Z,97.80
2019-01-12T18:28:16.646Z,96.90
2019-01-12T18:33:15.767Z,97.50
2019-01-12T18:35:45.652Z,97.50
2019-01-12T18:38:15.465Z,97.50
2019-01-12T18:43:14.841Z,97.20
2019-01-12T18:45:44.764Z,97.20
2019-01-12T18:48:14.608Z,96.80
2019-01-12T18:50:44.426Z,96.90
2019-01-12T18:53:14.310Z,96.90
2019-01-12T18:55:44.472Z,96.80
2019-01-12T19:00:43.616Z,96.70
2019-01-12T19:05:42.641Z,96.60
2019-01-12T19:08:12.595Z,96.60
2019-01-12T19:10:42.596Z,96.40
2019-01-12T19:18:10.921Z,96.40
2019-01-12T19:20:40.793Z,96.40
2019-01-12T19:23:10.688Z,96.40
2019-01-12T19:25:40.494Z,96.30
2019-01-12T19:28:10.808Z,96.30
2019-01-12T19:30:40.690Z,96.40
2019-01-12T19:33:10.705Z,96.50
2019-01-12T19:35:40.579Z,96.40
2019-01-12T19:38:10.449Z,96.40
2019-01-12T19:43:09.837Z,96.60
2019-01-12T19:45:39.980Z,96.70
2019-01-12T19:48:09.890Z,96.90
2019-01-12T19:53:10.334Z,96.90
2019-01-12T19:55:40.225Z,97.10
2019-01-12T20:00:39.396Z,97.50
2019-01-12T20:03:09.313Z,97.50
2019-01-12T20:05:39.168Z,97.50
2019-01-12T20:13:07.752Z,97.40
2019-01-12T20:15:37.556Z,97.20
2019-01-12T20:18:07.576Z,97.10
2019-01-12T20:20:37.524Z,97.00
2019-01-12T20:23:07.509Z,96.90
2019-01-12T20:25:37.320Z,96.90
2019-01-12T20:28:10.574Z,97.10
2019-01-12T20:31:05.125Z,97.10
2019-01-12T20:34:06.116Z,97.10
2019-01-12T20:47:53.853Z,97.70
2019-01-12T20:51:09.204Z,97.90
2019-01-12T20:54:01.827Z,98.00
2019-01-12T20:56:54.205Z,98.10
2019-01-12T20:59:48.617Z,98.10
2019-01-12T21:02:50.380Z,98.20
2019-01-12T21:08:29.009Z,98.30
2019-01-12T21:11:45.517Z,98.30
2019-01-12T21:14:30.911Z,98.20
2019-01-12T21:17:06.948Z,98.20
2019-01-12T21:24:37.753Z,98.10
2019-01-12T21:32:25.488Z,98.00
2019-01-12T21:34:55.316Z,98.00
2019-01-12T21:37:25.264Z,98.00
2019-01-12T21:39:55.191Z,98.10
2019-01-12T21:42:25.229Z,98.00
2019-01-12T21:49:53.624Z,98.20
2019-01-12T21:52:23.448Z,98.20
2019-01-12T21:54:53.338Z,98.10
2019-01-12T21:57:23.241Z,98.20
2019-01-12T22:02:22.400Z,97.90
2019-01-12T22:04:52.301Z,97.80
2019-01-12T22:07:22.176Z,97.90
2019-01-12T22:12:21.232Z,98.00
2019-01-12T22:14:51.203Z,98.00
2019-01-12T22:17:21.173Z,98.00
2019-01-12T22:19:50.978Z,98.10
2019-01-12T22:22:20.928Z,98.20
2019-01-12T22:24:50.757Z,98.30
2019-01-12T22:27:20.645Z,98.20
2019-01-12T22:29:50.493Z,98.30
2019-01-12T22:32:20.317Z,98.30
2019-01-12T22:39:48.630Z,98.30
2019-01-12T22:42:18.524Z,98.30
2019-01-12T22:47:17.603Z,98.30
2019-01-12T22:54:45.929Z,98.10
2019-01-12T22:59:46.436Z,98.20
2019-01-12T23:02:16.482Z,98.30
2019-01-12T23:04:46.297Z,98.30
2019-01-12T23:09:45.364Z,98.30
2019-01-12T23:12:15.256Z,98.40
2019-01-12T23:14:45.090Z,98.50
2019-01-12T23:19:44.228Z,98.60
2019-01-12T23:22:14.120Z,98.60
2019-01-12T23:24:43.940Z,98.60
2019-01-12T23:27:13.856Z,98.70
2019-01-12T23:29:43.689Z,98.60
2019-01-12T23:32:13.505Z,98.60
2019-01-12T23:34:43.317Z,98.60
2019-01-12T23:37:13.208Z,98.70
2019-01-12T23:39:43.023Z,98.60
2019-01-12T23:42:12.975Z,98.60
2019-01-12T23:44:42.808Z,98.50
2019-01-12T23:49:42.170Z,98.40
2019-01-12T23:52:11.981Z,98.40
2019-01-12T23:57:11.124Z,98.20
2019-01-12T23:59:40.961Z,98.20
